createdAt,value
2022-12-27T00:02:51.799Z,11.21
2022-12-27T00:05:55.649Z,11.46
2022-12-27T00:08:59.717Z,11.58
2022-12-27T00:12:03.737Z,11.64
2022-12-27T00:15:07.816Z,11.48
2022-12-27T00:18:11.800Z,11.42
2022-12-27T00:21:15.779Z,11.36
2022-12-27T00:24:19.673Z,11.38
2022-12-27T00:27:24.193Z,11.29
2022-12-27T00:30:28.093Z,11.49
2022-12-27T00:33:32.181Z,11.24
2022-12-27T00:36:36.171Z,11.47
2022-12-27T00:39:40.175Z,11.37
2022-12-27T00:42:44.231Z,11.62
2022-12-27T00:45:48.309Z,11.39
2022-12-27T00:48:52.277Z,11.49
2022-12-27T00:51:56.208Z,11.72
2022-12-27T00:54:59.988Z,11.70
2022-12-27T00:58:04.236Z,11.58
2022-12-27T01:01:08.396Z,11.64
2022-12-27T01:04:13.818Z,11.38
2022-12-27T01:07:18.237Z,11.32
2022-12-27T01:10:22.163Z,11.46
2022-12-27T01:13:26.242Z,11.73
2022-12-27T01:16:30.399Z,11.68
2022-12-27T01:19:34.531Z,11.50
2022-12-27T01:22:38.507Z,11.32
2022-12-27T01:25:42.478Z,11.12
2022-12-27T01:28:46.564Z,11.37
2022-12-27T01:31:50.757Z,11.29
2022-12-27T01:34:54.602Z,11.07
2022-12-27T01:37:58.651Z,11.21
2022-12-27T01:41:02.599Z,11.23
2022-12-27T01:44:06.543Z,11.45
2022-12-27T01:47:10.699Z,11.40
2022-12-27T01:50:14.701Z,11.36
2022-12-27T01:53:18.414Z,11.50
2022-12-27T01:56:22.429Z,11.32
2022-12-27T01:59:26.455Z,11.55
2022-12-27T02:02:30.536Z,11.48
2022-12-27T02:05:34.174Z,11.69
2022-12-27T02:08:38.215Z,11.52
2022-12-27T02:11:42.410Z,11.75
2022-12-27T02:14:46.500Z,11.40
2022-12-27T02:17:50.450Z,11.82
2022-12-27T02:20:54.261Z,11.83
2022-12-27T02:23:58.127Z,11.66
2022-12-27T02:27:02.298Z,11.66
2022-12-27T02:30:06.573Z,11.48
2022-12-27T02:33:10.508Z,11.45
2022-12-27T02:36:14.631Z,11.44
2022-12-27T02:39:18.554Z,11.55
2022-12-27T02:42:22.957Z,11.55
2022-12-27T02:45:27.048Z,11.48
2022-12-27T02:48:30.912Z,11.56
2022-12-27T02:51:35.156Z,11.64
2022-12-27T02:54:39.072Z,11.20
2022-12-27T02:57:43.070Z,11.16
2022-12-27T03:00:47.069Z,11.20
2022-12-27T03:03:51.025Z,11.24
2022-12-27T03:06:55.182Z,10.88
2022-12-27T03:09:59.170Z,11.07
2022-12-27T03:13:02.764Z,11.18
2022-12-27T03:16:06.608Z,10.95
2022-12-27T03:19:10.780Z,10.39
2022-12-27T03:22:14.542Z,10.69
2022-12-27T03:25:18.442Z,10.81
2022-12-27T03:28:22.165Z,10.60
2022-12-27T03:31:26.194Z,10.50
2022-12-27T03:34:33.244Z,10.56
2022-12-27T03:37:37.308Z,10.53
2022-12-27T03:40:41.375Z,10.57
2022-12-27T03:43:45.286Z,10.61
2022-12-27T03:46:49.095Z,10.44
2022-12-27T03:49:53.122Z,10.46
2022-12-27T03:52:57.301Z,10.80
2022-12-27T03:56:01.418Z,10.99
2022-12-27T03:59:05.336Z,10.58
2022-12-27T04:02:09.389Z,10.82
2022-12-27T04:05:13.544Z,10.95
2022-12-27T04:08:17.602Z,10.78
2022-12-27T04:11:21.570Z,10.84
2022-12-27T04:14:25.264Z,10.79
2022-12-27T04:17:29.352Z,10.53
2022-12-27T04:20:33.393Z,10.71
2022-12-27T04:23:37.279Z,10.85
2022-12-27T04:26:41.077Z,10.91
2022-12-27T04:29:45.240Z,10.80
2022-12-27T04:32:49.469Z,10.83
2022-12-27T04:35:53.613Z,10.87
2022-12-27T04:38:57.530Z,10.83
2022-12-27T04:42:01.401Z,10.72
2022-12-27T04:45:10.209Z,10.32
2022-12-27T04:48:17.051Z,10.36
2022-12-27T04:51:21.088Z,10.34
2022-12-27T04:54:25.132Z,10.54
2022-12-27T04:57:29.158Z,10.67
2022-12-27T05:00:32.966Z,10.56
2022-12-27T05:03:37.303Z,10.42
2022-12-27T05:06:41.239Z,10.64
2022-12-27T05:09:45.384Z,10.57
2022-12-27T05:12:49.409Z,10.59
2022-12-27T05:15:53.245Z,10.73
2022-12-27T05:18:57.202Z,10.62
2022-12-27T05:22:01.372Z,10.62
2022-12-27T05:25:05.292Z,10.54
2022-12-27T05:28:08.938Z,10.40
2022-12-27T05:31:12.762Z,10.42
2022-12-27T05:34:16.908Z,10.18
2022-12-27T05:37:20.998Z,10.28
2022-12-27T05:40:24.876Z,10.40
2022-12-27T05:43:29.109Z,10.24
2022-12-27T05:46:33.091Z,10.08
2022-12-27T05:49:37.130Z,10.03
2022-12-27T05:52:41.518Z,9.90
2022-12-27T05:55:45.222Z,10.00
2022-12-27T05:58:51.639Z,9.99
2022-12-27T06:01:55.647Z,9.91
2022-12-27T06:04:59.640Z,9.54
2022-12-27T06:08:03.656Z,9.79
2022-12-27T06:11:07.727Z,9.84
2022-12-27T06:14:11.756Z,9.74
2022-12-27T06:17:15.660Z,9.71
2022-12-27T06:20:19.738Z,10.05
2022-12-27T06:23:23.770Z,9.82
2022-12-27T06:26:27.710Z,9.74
2022-12-27T06:29:31.866Z,9.84
2022-12-27T06:32:35.898Z,9.87
2022-12-27T06:35:40.154Z,9.97
2022-12-27T06:38:44.114Z,9.67
2022-12-27T06:41:47.957Z,9.70
2022-12-27T06:44:51.893Z,9.64
2022-12-27T06:47:56.182Z,9.67
2022-12-27T06:51:00.069Z,9.60
2022-12-27T06:54:03.885Z,9.65
2022-12-27T06:57:07.809Z,9.68
2022-12-27T07:00:11.872Z,9.63
2022-12-27T07:03:15.932Z,9.71
2022-12-27T07:06:19.867Z,9.59
2022-12-27T07:09:23.774Z,9.64
2022-12-27T07:12:30.603Z,9.71
2022-12-27T07:15:38.721Z,9.85
2022-12-27T07:18:42.718Z,9.56
2022-12-27T07:21:46.804Z,9.77
2022-12-27T07:24:50.827Z,9.93
2022-12-27T07:27:54.649Z,9.93
2022-12-27T07:30:58.350Z,10.02
2022-12-27T07:34:02.371Z,9.92
2022-12-27T07:37:06.401Z,10.26
2022-12-27T07:40:10.531Z,10.32
2022-12-27T07:43:14.500Z,10.42
2022-12-27T07:46:18.691Z,10.40
2022-12-27T07:49:22.653Z,10.27
2022-12-27T07:52:26.775Z,10.62
2022-12-27T07:55:30.786Z,10.75
2022-12-27T07:58:34.779Z,10.82
2022-12-27T08:01:38.852Z,10.71
2022-12-27T08:04:42.832Z,10.57
2022-12-27T08:07:46.554Z,10.35
2022-12-27T08:10:50.527Z,10.31
2022-12-27T08:13:54.655Z,10.09
2022-12-27T08:16:58.625Z,10.19
2022-12-27T08:20:02.718Z,10.02
2022-12-27T08:23:06.300Z,10.30
2022-12-27T08:26:10.264Z,10.41
2022-12-27T08:29:14.374Z,10.41
2022-12-27T08:32:18.495Z,10.33
2022-12-27T08:35:51.416Z,10.28
2022-12-27T08:38:46.171Z,10.41
2022-12-27T08:41:50.104Z,10.61
2022-12-27T08:44:54.015Z,9.91
2022-12-27T08:47:58.136Z,10.45
2022-12-27T08:51:05.967Z,10.64
2022-12-27T08:54:14.747Z,10.42
2022-12-27T08:57:18.585Z,10.32
2022-12-27T09:00:22.632Z,9.75
2022-12-27T09:03:26.572Z,10.13
2022-12-27T09:06:30.623Z,10.48
2022-12-27T09:09:34.687Z,10.62
2022-12-27T09:12:38.621Z,10.75
2022-12-27T09:15:42.365Z,10.72
2022-12-27T09:18:46.375Z,10.68
2022-12-27T09:21:50.593Z,10.65
2022-12-27T09:24:54.498Z,11.00
2022-12-27T09:27:58.473Z,11.15
2022-12-27T09:31:02.472Z,11.18
2022-12-27T09:34:06.529Z,11.06
2022-12-27T09:37:10.569Z,11.11
2022-12-27T09:40:14.458Z,11.13
2022-12-27T09:43:25.420Z,11.32
2022-12-27T09:46:31.569Z,11.45
2022-12-27T09:49:35.216Z,11.26
2022-12-27T09:52:38.992Z,11.46
2022-12-27T09:55:42.861Z,11.61
2022-12-27T09:58:46.766Z,11.47
2022-12-27T10:01:50.950Z,11.62
2022-12-27T10:05:28.483Z,11.72
2022-12-27T10:08:18.745Z,11.57
2022-12-27T10:11:22.858Z,11.38
2022-12-27T10:14:26.827Z,11.64
2022-12-27T10:17:30.857Z,11.78
2022-12-27T10:20:34.831Z,11.83
2022-12-27T10:23:38.725Z,11.65
2022-12-27T10:26:43.207Z,11.74
2022-12-27T10:29:47.117Z,11.84
2022-12-27T10:32:51.092Z,11.81
2022-12-27T10:35:57.056Z,11.71
2022-12-27T10:39:00.902Z,11.64
2022-12-27T10:42:04.922Z,11.36
2022-12-27T10:45:09.009Z,11.54
2022-12-27T10:48:12.903Z,11.29
2022-12-27T10:51:16.950Z,11.47
2022-12-27T10:54:20.892Z,11.52
2022-12-27T10:57:25.100Z,11.57
2022-12-27T11:00:29.245Z,11.48
2022-12-27T11:03:32.922Z,11.92
2022-12-27T11:06:36.825Z,11.52
2022-12-27T11:09:44.944Z,11.99
2022-12-27T11:12:53.873Z,11.72
2022-12-27T11:15:58.975Z,12.09
2022-12-27T11:19:03.066Z,12.27
2022-12-27T11:22:06.945Z,12.30
2022-12-27T11:25:11.052Z,11.97
2022-12-27T11:28:15.115Z,12.38
2022-12-27T11:31:18.606Z,12.36
2022-12-27T11:34:22.772Z,12.19
2022-12-27T11:37:26.715Z,12.38
2022-12-27T11:40:30.588Z,12.16
2022-12-27T11:43:34.587Z,12.10
2022-12-27T11:46:38.894Z,12.54
2022-12-27T11:49:43.179Z,12.48
2022-12-27T11:52:47.248Z,12.68
2022-12-27T11:55:51.282Z,12.71
2022-12-27T11:58:55.430Z,12.58
2022-12-27T12:01:59.547Z,12.56
2022-12-27T12:05:03.551Z,12.63
2022-12-27T12:08:07.285Z,12.69
2022-12-27T12:11:11.224Z,12.47
2022-12-27T12:14:15.306Z,12.34
2022-12-27T12:17:19.678Z,12.43
2022-12-27T12:20:23.526Z,12.24
2022-12-27T12:23:27.484Z,12.31
2022-12-27T12:26:31.467Z,12.13
2022-12-27T12:29:35.577Z,12.37
2022-12-27T12:32:40.353Z,12.44
2022-12-27T12:35:44.305Z,12.62
2022-12-27T12:38:48.495Z,12.57
2022-12-27T12:41:53.802Z,11.81
2022-12-27T12:44:57.501Z,12.31
2022-12-27T12:48:02.323Z,12.39
2022-12-27T12:51:06.493Z,12.52
2022-12-27T12:54:10.235Z,12.55
2022-12-27T12:57:14.161Z,12.43
2022-12-27T13:00:18.246Z,12.36
2022-12-27T13:03:23.717Z,12.39
2022-12-27T13:06:27.843Z,12.35
2022-12-27T13:09:31.816Z,12.04
2022-12-27T13:12:36.093Z,12.30
2022-12-27T13:15:40.137Z,12.55
2022-12-27T13:18:44.300Z,12.67
2022-12-27T13:21:48.117Z,12.52
2022-12-27T13:24:52.107Z,12.52
2022-12-27T13:27:56.186Z,12.60
2022-12-27T13:31:00.352Z,12.26
2022-12-27T13:34:04.108Z,12.26
2022-12-27T13:37:08.006Z,12.37
2022-12-27T13:40:11.967Z,12.55
2022-12-27T13:43:16.008Z,12.09
2022-12-27T13:46:19.865Z,11.67
2022-12-27T13:49:23.612Z,11.89
2022-12-27T13:52:27.533Z,12.17
2022-12-27T13:55:31.758Z,12.45
2022-12-27T13:58:35.800Z,12.45
2022-12-27T14:01:39.508Z,12.55
2022-12-27T14:04:43.400Z,12.29
2022-12-27T14:07:47.560Z,11.94
2022-12-27T14:10:56.868Z,12.01
2022-12-27T14:14:04.328Z,12.19
2022-12-27T14:17:08.541Z,12.51
2022-12-27T14:20:12.427Z,12.63
2022-12-27T14:23:16.118Z,12.50
2022-12-27T14:26:20.100Z,12.52
2022-12-27T14:29:23.936Z,12.57
2022-12-27T14:32:28.200Z,12.53
2022-12-27T14:35:32.185Z,12.35
2022-12-27T14:38:35.963Z,12.41
2022-12-27T14:41:39.942Z,12.52
2022-12-27T14:44:43.954Z,12.51
2022-12-27T14:47:48.371Z,12.56
2022-12-27T14:50:52.094Z,12.56
2022-12-27T14:53:56.065Z,12.46
2022-12-27T14:57:00.510Z,12.44
2022-12-27T15:00:04.774Z,12.43
2022-12-27T15:03:09.292Z,12.36
2022-12-27T15:06:13.057Z,11.87
2022-12-27T15:09:16.971Z,12.22
2022-12-27T15:12:21.083Z,12.26
2022-12-27T15:15:25.868Z,12.22
2022-12-27T15:18:29.777Z,12.14
2022-12-27T15:21:37.082Z,11.96
2022-12-27T15:24:45.027Z,11.40
2022-12-27T15:27:49.098Z,11.62
2022-12-27T15:30:52.887Z,11.44
2022-12-27T15:33:56.891Z,11.62
2022-12-27T15:37:00.897Z,11.72
2022-12-27T15:40:04.523Z,11.47
2022-12-27T15:43:08.600Z,11.59
2022-12-27T15:46:12.805Z,11.91
2022-12-27T15:49:16.865Z,11.95
2022-12-27T15:52:20.924Z,11.88
2022-12-27T15:55:24.696Z,11.78
2022-12-27T15:58:28.457Z,11.72
2022-12-27T16:01:32.749Z,11.66
2022-12-27T16:04:36.635Z,11.62
2022-12-27T16:07:40.455Z,11.69
2022-12-27T16:10:44.489Z,11.78
2022-12-27T16:13:48.807Z,11.81
2022-12-27T16:16:52.729Z,11.72
2022-12-27T16:19:56.769Z,11.60
2022-12-27T16:23:00.709Z,11.29
2022-12-27T16:26:04.741Z,11.34
2022-12-27T16:29:08.893Z,11.26
2022-12-27T16:32:12.893Z,11.31
2022-12-27T16:35:16.793Z,11.15
2022-12-27T16:38:20.457Z,11.14
2022-12-27T16:41:24.731Z,11.23
2022-12-27T16:44:30.709Z,11.27
2022-12-27T16:47:38.378Z,11.07
2022-12-27T16:50:45.757Z,11.18
2022-12-27T16:53:49.948Z,11.03
2022-12-27T16:56:53.923Z,10.90
2022-12-27T16:59:57.932Z,10.78
2022-12-27T17:03:01.875Z,10.76
2022-12-27T17:06:31.393Z,10.77
2022-12-27T17:09:33.961Z,10.85
2022-12-27T17:12:38.364Z,10.67
2022-12-27T17:15:49.243Z,10.59
2022-12-27T17:18:53.600Z,10.52
2022-12-27T17:21:57.763Z,10.61
2022-12-27T17:25:01.490Z,10.72
2022-12-27T17:28:05.479Z,10.51
2022-12-27T17:31:09.597Z,10.55
2022-12-27T17:34:14.132Z,10.58
2022-12-27T17:37:18.141Z,10.16
2022-12-27T17:40:22.107Z,10.06
2022-12-27T17:43:25.947Z,10.17
2022-12-27T17:46:30.030Z,10.52
2022-12-27T17:49:34.011Z,10.44
2022-12-27T17:52:37.795Z,10.22
2022-12-27T17:55:41.701Z,10.46
2022-12-27T17:58:46.030Z,10.51
2022-12-27T18:01:50.233Z,10.57
2022-12-27T18:04:54.439Z,10.56
2022-12-27T18:07:58.271Z,10.57
2022-12-27T18:11:02.541Z,10.51
2022-12-27T18:14:06.671Z,10.08
2022-12-27T18:17:10.771Z,10.29
2022-12-27T18:20:14.678Z,10.27
2022-12-27T18:23:18.707Z,10.37
2022-12-27T18:26:22.874Z,10.21
2022-12-27T18:29:26.885Z,10.58
2022-12-27T18:32:31.003Z,10.51
2022-12-27T18:35:34.773Z,10.59
2022-12-27T18:38:38.711Z,10.62
2022-12-27T18:41:42.976Z,10.65
2022-12-27T18:44:47.108Z,10.40
2022-12-27T18:47:50.996Z,10.57
2022-12-27T18:50:55.026Z,10.74
2022-12-27T18:53:59.095Z,10.62
2022-12-27T18:57:03.086Z,10.48
2022-12-27T19:00:07.224Z,10.58
2022-12-27T19:03:10.928Z,10.50
2022-12-27T19:06:14.861Z,10.63
2022-12-27T19:09:20.038Z,10.81
2022-12-27T19:12:24.221Z,10.27
2022-12-27T19:15:28.388Z,10.41
2022-12-27T19:18:32.224Z,10.47
2022-12-27T19:21:36.327Z,10.52
2022-12-27T19:24:40.103Z,10.54
2022-12-27T19:27:44.307Z,10.71
2022-12-27T19:30:48.103Z,10.59
2022-12-27T19:33:52.048Z,10.83
2022-12-27T19:36:56.275Z,11.02
2022-12-27T19:40:00.378Z,10.89
2022-12-27T19:43:04.562Z,10.65
2022-12-27T19:46:08.539Z,10.69
2022-12-27T19:52:36.449Z,10.72
2022-12-27T19:55:40.433Z,9.94
2022-12-27T19:58:44.607Z,10.03
2022-12-27T20:01:48.715Z,9.94
2022-12-27T20:04:53.113Z,10.15
2022-12-27T20:07:57.052Z,10.30
2022-12-27T20:11:01.197Z,9.62
2022-12-27T20:14:05.243Z,9.78
2022-12-27T20:17:08.946Z,9.79
2022-12-27T20:20:12.818Z,9.89
2022-12-27T20:23:17.252Z,9.56
2022-12-27T20:26:21.242Z,9.87
2022-12-27T20:29:25.614Z,9.95
2022-12-27T20:32:29.463Z,9.17
2022-12-27T20:35:33.301Z,9.59
2022-12-27T20:38:37.505Z,9.46
2022-12-27T20:41:41.462Z,9.41
2022-12-27T20:44:45.445Z,9.67
2022-12-27T20:47:49.295Z,9.74
2022-12-27T20:50:53.338Z,9.80
2022-12-27T20:53:57.415Z,9.84
2022-12-27T20:57:01.646Z,9.68
2022-12-27T21:00:05.610Z,9.65
2022-12-27T21:03:09.578Z,9.57
2022-12-27T21:06:13.671Z,9.33
2022-12-27T21:09:17.527Z,9.59
2022-12-27T21:12:21.390Z,9.58
2022-12-27T21:15:25.366Z,9.52
2022-12-27T21:18:29.435Z,9.67
2022-12-27T21:21:33.500Z,9.55
2022-12-27T21:24:37.392Z,9.41
2022-12-27T21:27:41.326Z,9.40
2022-12-27T21:30:45.461Z,9.30
2022-12-27T21:33:49.425Z,9.41
2022-12-27T21:36:53.601Z,9.17
2022-12-27T21:39:57.403Z,9.16
2022-12-27T21:43:01.428Z,9.22
2022-12-27T21:46:05.551Z,9.27
2022-12-27T21:49:09.538Z,9.16
2022-12-27T21:52:13.548Z,9.09
2022-12-27T21:55:17.476Z,9.21
2022-12-27T21:58:21.620Z,9.21
2022-12-27T22:01:26.119Z,9.31
2022-12-27T22:04:30.348Z,9.17
2022-12-27T22:07:34.050Z,8.91
2022-12-27T22:10:37.877Z,9.04
2022-12-27T22:13:41.993Z,9.10
2022-12-27T22:16:46.129Z,9.18
2022-12-27T22:19:50.011Z,9.15
2022-12-27T22:22:53.946Z,8.89
2022-12-27T22:25:58.130Z,8.89
2022-12-27T22:29:02.394Z,8.87
2022-12-27T22:32:06.318Z,8.79
2022-12-27T22:35:10.220Z,8.77
2022-12-27T22:38:14.016Z,8.88
2022-12-27T22:41:18.033Z,8.68
2022-12-27T22:44:22.023Z,8.63
2022-12-27T22:47:27.670Z,8.13
2022-12-27T22:50:31.958Z,7.71
2022-12-27T22:53:35.950Z,8.03
2022-12-27T22:56:40.018Z,8.33
2022-12-27T22:59:45.898Z,8.52
2022-12-27T23:02:50.240Z,8.61
2022-12-27T23:05:54.093Z,8.43
2022-12-27T23:08:58.133Z,8.11
2022-12-27T23:12:02.071Z,8.27
2022-12-27T23:15:06.249Z,8.41
2022-12-27T23:18:10.299Z,8.21
2022-12-27T23:21:20.593Z,8.11
2022-12-27T23:24:27.673Z,8.02
2022-12-27T23:27:31.712Z,8.23
2022-12-27T23:30:35.424Z,8.12
2022-12-27T23:33:39.413Z,8.16
2022-12-27T23:36:43.448Z,8.39
2022-12-27T23:39:47.654Z,8.22
2022-12-27T23:42:51.486Z,8.44
2022-12-27T23:45:55.743Z,8.42
2022-12-27T23:49:00.188Z,8.34
2022-12-27T23:52:04.264Z,8.25
2022-12-27T23:55:08.367Z,8.25
2022-12-27T23:58:13.612Z,8.07
